createdAt,value
2023-05-06T00:00:50.220Z,13.71
2023-05-06T00:01:50.239Z,13.72
2023-05-06T00:02:50.204Z,13.77
2023-05-06T00:03:50.402Z,13.80
2023-05-06T00:04:50.293Z,13.82
2023-05-06T00:05:50.265Z,13.84
2023-05-06T00:06:50.134Z,13.86
2023-05-06T00:07:50.174Z,13.88
2023-05-06T00:08:50.104Z,13.91
2023-05-06T00:09:50.145Z,13.94
2023-05-06T00:10:50.103Z,13.93
2023-05-06T00:11:50.100Z,13.90
2023-05-06T00:12:50.091Z,13.89
2023-05-06T00:13:50.114Z,13.90
2023-05-06T00:14:50.022Z,13.93
2023-05-06T00:15:50.095Z,13.95
2023-05-06T00:16:49.994Z,13.95
2023-05-06T00:17:50.079Z,13.95
2023-05-06T00:18:49.974Z,13.91
2023-05-06T00:19:50.054Z,13.86
2023-05-06T00:20:49.942Z,13.82
2023-05-06T00:21:53.203Z,13.82
2023-05-06T00:22:49.913Z,13.84
2023-05-06T00:23:49.985Z,13.88
2023-05-06T00:24:49.900Z,13.88
2023-05-06T00:25:49.894Z,13.85
2023-05-06T00:26:49.862Z,13.82
2023-05-06T00:27:49.966Z,13.80
2023-05-06T00:28:49.833Z,13.77
2023-05-06T00:29:49.919Z,13.75
2023-05-06T00:30:49.804Z,13.74
2023-05-06T00:31:49.860Z,13.72
2023-05-06T00:32:49.868Z,13.72
2023-05-06T00:33:49.805Z,13.73
2023-05-06T00:34:49.775Z,13.76
2023-05-06T00:35:49.761Z,13.76
2023-05-06T00:36:49.736Z,13.76
2023-05-06T00:37:49.774Z,13.77
2023-05-06T00:38:49.699Z,13.77
2023-05-06T00:39:49.784Z,13.77
2023-05-06T00:40:49.687Z,13.77
2023-05-06T00:41:49.705Z,13.76
2023-05-06T00:42:49.652Z,13.77
2023-05-06T00:43:50.743Z,13.78
2023-05-06T00:44:49.616Z,13.80
2023-05-06T00:45:49.720Z,13.80
2023-05-06T00:46:49.613Z,13.79
2023-05-06T00:47:49.680Z,13.79
2023-05-06T00:48:49.577Z,13.77
2023-05-06T00:49:49.681Z,13.75
2023-05-06T00:50:49.545Z,13.74
2023-05-06T00:51:49.625Z,13.74
2023-05-06T00:52:49.503Z,13.74
2023-05-06T00:53:49.600Z,13.74
2023-05-06T00:54:49.486Z,13.75
2023-05-06T00:55:49.492Z,13.74
2023-05-06T00:56:49.607Z,13.73
2023-05-06T00:57:49.602Z,13.72
2023-05-06T00:58:49.425Z,13.69
2023-05-06T00:59:49.535Z,13.67
2023-05-06T01:00:49.466Z,13.66
2023-05-06T01:01:49.461Z,13.66
2023-05-06T01:02:49.548Z,13.68
2023-05-06T01:03:49.528Z,13.70
2023-05-06T01:04:49.392Z,13.74
2023-05-06T01:05:49.368Z,13.81
2023-05-06T01:06:49.315Z,13.88
2023-05-06T01:07:49.393Z,13.94
2023-05-06T01:08:49.296Z,13.99
2023-05-06T01:09:49.368Z,14.02
2023-05-06T01:10:49.277Z,14.03
2023-05-06T01:11:49.314Z,14.01
2023-05-06T01:12:49.340Z,13.97
2023-05-06T01:13:49.339Z,13.93
2023-05-06T01:14:49.223Z,13.89
2023-05-06T01:15:49.291Z,13.86
2023-05-06T01:16:49.324Z,13.81
2023-05-06T01:17:49.323Z,13.78
2023-05-06T01:18:49.177Z,13.80
2023-05-06T01:19:49.171Z,13.86
2023-05-06T01:20:49.143Z,13.97
2023-05-06T01:21:49.237Z,14.11
2023-05-06T01:22:49.116Z,14.26
2023-05-06T01:23:49.194Z,14.39
2023-05-06T01:24:49.115Z,14.50
2023-05-06T01:25:49.134Z,14.61
2023-05-06T01:26:49.062Z,14.70
2023-05-06T01:27:49.200Z,14.78
2023-05-06T01:28:49.038Z,14.84
2023-05-06T01:29:49.052Z,14.90
2023-05-06T01:30:49.029Z,14.98
2023-05-06T01:31:49.048Z,15.02
2023-05-06T01:32:49.006Z,15.03
2023-05-06T01:33:49.019Z,15.00
2023-05-06T01:34:48.971Z,14.97
2023-05-06T01:35:48.988Z,14.95
2023-05-06T01:36:48.928Z,14.93
2023-05-06T01:37:48.985Z,14.87
2023-05-06T01:38:48.908Z,14.81
2023-05-06T01:39:48.957Z,14.74
2023-05-06T01:40:48.877Z,14.66
2023-05-06T01:41:48.918Z,14.60
2023-05-06T01:42:48.853Z,14.54
2023-05-06T01:43:48.943Z,14.47
2023-05-06T01:44:48.846Z,14.41
2023-05-06T01:45:48.889Z,14.37
2023-05-06T01:46:48.862Z,14.34
2023-05-06T01:47:48.919Z,14.31
2023-05-06T01:48:48.775Z,14.28
2023-05-06T01:49:48.786Z,14.23
2023-05-06T01:50:48.742Z,14.17
2023-05-06T01:51:48.844Z,14.11
2023-05-06T01:52:48.723Z,14.05
2023-05-06T01:53:48.809Z,14.00
2023-05-06T01:54:48.697Z,13.94
2023-05-06T01:55:48.752Z,13.88
2023-05-06T01:56:48.672Z,13.83
2023-05-06T01:57:48.805Z,13.80
2023-05-06T01:58:48.631Z,13.77
2023-05-06T01:59:48.650Z,13.73
2023-05-06T02:00:48.611Z,13.71
2023-05-06T02:01:48.675Z,13.66
2023-05-06T02:02:48.722Z,13.61
2023-05-06T02:03:48.737Z,13.58
2023-05-06T02:04:48.587Z,13.56
2023-05-06T02:05:48.588Z,13.54
2023-05-06T02:06:48.532Z,13.54
2023-05-06T02:07:48.599Z,13.52
2023-05-06T02:08:48.521Z,13.51
2023-05-06T02:09:48.586Z,13.50
2023-05-06T02:10:48.484Z,13.46
2023-05-06T02:11:48.522Z,13.42
2023-05-06T02:12:48.474Z,13.40
2023-05-06T02:13:48.537Z,13.40
2023-05-06T02:14:48.430Z,13.40
2023-05-06T02:15:48.533Z,13.40
2023-05-06T02:16:48.396Z,13.41
2023-05-06T02:17:48.480Z,13.41
2023-05-06T02:18:48.367Z,13.42
2023-05-06T02:19:48.377Z,13.42
2023-05-06T02:20:48.340Z,13.43
2023-05-06T02:21:48.455Z,13.46
2023-05-06T02:22:48.314Z,13.49
2023-05-06T02:23:48.414Z,13.51
2023-05-06T02:24:48.290Z,13.51
2023-05-06T02:25:48.316Z,13.52
2023-05-06T02:26:48.272Z,13.51
2023-05-06T02:27:48.289Z,13.50
2023-05-06T02:28:48.266Z,13.49
2023-05-06T02:29:50.336Z,13.46
2023-05-06T02:30:48.215Z,13.44
2023-05-06T02:31:48.324Z,13.42
2023-05-06T02:32:48.259Z,13.39
2023-05-06T02:33:48.225Z,13.38
2023-05-06T02:34:48.166Z,13.37
2023-05-06T02:35:48.189Z,13.36
2023-05-06T02:36:48.125Z,13.38
2023-05-06T02:37:48.194Z,13.39
2023-05-06T02:38:48.096Z,13.41
2023-05-06T02:39:48.176Z,13.42
2023-05-06T02:40:48.107Z,13.44
2023-05-06T02:41:48.129Z,13.43
2023-05-06T02:42:48.072Z,13.42
2023-05-06T02:43:48.155Z,13.40
2023-05-06T02:44:48.023Z,13.39
2023-05-06T02:45:48.178Z,13.39
2023-05-06T02:46:47.985Z,13.40
2023-05-06T02:47:48.133Z,13.39
2023-05-06T02:48:47.956Z,13.40
2023-05-06T02:49:47.987Z,13.40
2023-05-06T02:50:47.934Z,13.41
2023-05-06T02:51:48.049Z,13.42
2023-05-06T02:52:47.905Z,13.46
2023-05-06T02:53:47.916Z,13.49
2023-05-06T02:54:47.883Z,13.51
2023-05-06T02:55:47.926Z,13.54
2023-05-06T02:56:47.850Z,13.57
2023-05-06T02:57:47.890Z,13.60
2023-05-06T02:58:47.819Z,13.62
2023-05-06T02:59:47.852Z,13.62
2023-05-06T03:00:47.850Z,13.60
2023-05-06T03:01:47.858Z,13.57
2023-05-06T03:02:47.815Z,13.55
2023-05-06T03:03:47.857Z,13.53
2023-05-06T03:04:47.744Z,13.52
2023-05-06T03:05:47.788Z,13.52
2023-05-06T03:06:47.743Z,13.51
2023-05-06T03:07:47.810Z,13.50
2023-05-06T03:08:47.690Z,13.49
2023-05-06T03:09:47.776Z,13.49
2023-05-06T03:10:47.655Z,13.50
2023-05-06T03:11:47.769Z,13.51
2023-05-06T03:12:47.656Z,13.51
2023-05-06T03:13:47.754Z,13.50
2023-05-06T03:14:47.633Z,13.48
2023-05-06T03:15:47.879Z,13.46
2023-05-06T03:16:47.724Z,13.45
2023-05-06T03:17:47.751Z,13.42
2023-05-06T03:18:47.573Z,13.39
2023-05-06T03:19:47.594Z,13.37
2023-05-06T03:20:47.528Z,13.37
2023-05-06T03:21:47.737Z,13.37
2023-05-06T03:22:47.499Z,13.38
2023-05-06T03:23:47.515Z,13.39
2023-05-06T03:24:47.469Z,13.41
2023-05-06T03:25:47.545Z,13.42
2023-05-06T03:26:47.455Z,13.42
2023-05-06T03:27:47.510Z,13.43
2023-05-06T03:28:47.419Z,13.44
2023-05-06T03:29:47.458Z,13.46
2023-05-06T03:30:47.388Z,13.47
2023-05-06T03:31:47.499Z,13.49
2023-05-06T03:32:47.399Z,13.51
2023-05-06T03:33:47.440Z,13.54
2023-05-06T03:34:47.337Z,13.57
2023-05-06T03:35:47.408Z,13.60
2023-05-06T03:36:47.305Z,13.62
2023-05-06T03:37:47.325Z,13.65
2023-05-06T03:38:47.278Z,13.67
2023-05-06T03:39:47.381Z,13.69
2023-05-06T03:40:47.255Z,13.70
2023-05-06T03:41:47.414Z,13.70
2023-05-06T03:42:47.236Z,13.70
2023-05-06T03:43:47.268Z,13.70
2023-05-06T03:44:47.203Z,13.70
2023-05-06T03:45:47.373Z,13.69
2023-05-06T03:46:47.180Z,13.68
2023-05-06T03:47:48.320Z,13.67
2023-05-06T03:48:47.155Z,13.67
2023-05-06T03:49:47.181Z,13.69
2023-05-06T03:50:47.120Z,13.72
2023-05-06T03:51:47.178Z,13.74
2023-05-06T03:52:47.099Z,13.74
2023-05-06T03:53:47.114Z,13.74
2023-05-06T03:54:47.078Z,13.76
2023-05-06T03:55:47.134Z,13.79
2023-05-06T03:56:47.094Z,13.81
2023-05-06T03:57:47.147Z,13.81
2023-05-06T03:58:47.015Z,13.80
2023-05-06T03:59:47.071Z,13.79
2023-05-06T04:00:46.990Z,13.77
2023-05-06T04:01:47.140Z,13.76
2023-05-06T04:02:46.975Z,13.75
2023-05-06T04:03:47.069Z,13.75
2023-05-06T04:04:46.949Z,13.77
2023-05-06T04:05:47.002Z,13.77
2023-05-06T04:06:46.913Z,13.77
2023-05-06T04:07:46.907Z,13.77
2023-05-06T04:08:46.880Z,13.77
2023-05-06T04:09:46.987Z,13.78
2023-05-06T04:10:46.858Z,13.79
2023-05-06T04:11:46.938Z,13.78
2023-05-06T04:12:46.874Z,13.76
2023-05-06T04:13:46.865Z,13.74
2023-05-06T04:14:46.808Z,13.73
2023-05-06T04:15:46.915Z,13.74
2023-05-06T04:16:46.831Z,13.76
2023-05-06T04:17:46.802Z,13.78
2023-05-06T04:18:46.754Z,13.81
2023-05-06T04:19:46.796Z,13.83
2023-05-06T04:20:46.724Z,13.82
2023-05-06T04:21:46.757Z,13.83
2023-05-06T04:22:46.700Z,13.85
2023-05-06T04:23:46.716Z,13.85
2023-05-06T04:24:46.666Z,13.84
2023-05-06T04:25:46.751Z,13.84
2023-05-06T04:26:46.644Z,13.85
2023-05-06T04:27:46.708Z,13.86
2023-05-06T04:28:46.635Z,13.88
2023-05-06T04:29:47.681Z,13.90
2023-05-06T04:30:46.588Z,13.91
2023-05-06T04:31:46.696Z,13.93
2023-05-06T04:32:46.628Z,13.96
2023-05-06T04:33:46.656Z,13.96
2023-05-06T04:34:46.547Z,13.97
2023-05-06T04:35:46.611Z,13.97
2023-05-06T04:36:46.510Z,14.01
2023-05-06T04:37:47.604Z,14.03
2023-05-06T04:38:46.494Z,14.05
2023-05-06T04:39:46.591Z,14.09
2023-05-06T04:40:46.498Z,14.14
2023-05-06T04:41:46.538Z,14.18
2023-05-06T04:42:46.434Z,14.20
2023-05-06T04:43:46.471Z,14.22
2023-05-06T04:44:46.410Z,14.23
2023-05-06T04:45:46.564Z,14.24
2023-05-06T04:46:46.387Z,14.25
2023-05-06T04:47:46.425Z,14.26
2023-05-06T04:48:46.353Z,14.27
2023-05-06T04:49:46.416Z,14.28
2023-05-06T04:50:46.337Z,14.28
2023-05-06T04:51:46.371Z,14.29
2023-05-06T04:52:46.308Z,14.30
2023-05-06T04:53:46.335Z,14.32
2023-05-06T04:54:46.287Z,14.34
2023-05-06T04:55:46.350Z,14.36
2023-05-06T04:56:46.259Z,14.37
2023-05-06T04:57:46.305Z,14.37
2023-05-06T04:58:46.237Z,14.37
2023-05-06T04:59:46.321Z,14.37
2023-05-06T05:00:46.207Z,14.37
2023-05-06T05:01:46.334Z,14.36
2023-05-06T05:02:46.232Z,14.36
2023-05-06T05:03:46.273Z,14.36
2023-05-06T05:04:46.144Z,14.36
2023-05-06T05:05:46.212Z,14.36
2023-05-06T05:06:46.126Z,14.36
2023-05-06T05:07:46.125Z,14.37
2023-05-06T05:08:46.113Z,14.37
2023-05-06T05:09:46.195Z,14.38
2023-05-06T05:10:46.060Z,14.38
2023-05-06T05:11:46.148Z,14.38
2023-05-06T05:12:46.104Z,14.39
2023-05-06T05:13:46.058Z,14.41
2023-05-06T05:14:46.017Z,14.42
2023-05-06T05:15:46.134Z,14.44
2023-05-06T05:16:45.995Z,14.47
2023-05-06T05:17:46.002Z,14.50
2023-05-06T05:18:45.967Z,14.52
2023-05-06T05:19:46.014Z,14.54
2023-05-06T05:20:45.954Z,14.56
2023-05-06T05:21:45.973Z,14.58
2023-05-06T05:22:45.909Z,14.60
2023-05-06T05:23:45.945Z,14.64
2023-05-06T05:24:45.884Z,14.67
2023-05-06T05:25:46.072Z,14.71
2023-05-06T05:26:45.877Z,14.75
2023-05-06T05:27:45.922Z,14.78
2023-05-06T05:28:45.824Z,14.83
2023-05-06T05:29:45.864Z,14.87
2023-05-06T05:30:45.846Z,14.93
2023-05-06T05:31:46.028Z,14.97
2023-05-06T05:32:45.813Z,15.01
2023-05-06T05:33:45.887Z,15.03
2023-05-06T05:34:45.752Z,15.04
2023-05-06T05:35:45.830Z,15.05
2023-05-06T05:36:45.743Z,15.06
2023-05-06T05:37:45.775Z,15.06
2023-05-06T05:38:45.698Z,15.05
2023-05-06T05:39:45.809Z,15.05
2023-05-06T05:40:45.686Z,15.05
2023-05-06T05:41:46.678Z,15.05
2023-05-06T05:42:45.634Z,15.05
2023-05-06T05:43:46.711Z,15.06
2023-05-06T05:44:45.634Z,15.08
2023-05-06T05:45:45.642Z,15.08
2023-05-06T05:46:45.619Z,15.07
2023-05-06T05:47:45.652Z,15.05
2023-05-06T05:48:45.564Z,15.04
2023-05-06T05:49:45.626Z,15.03
2023-05-06T05:50:45.538Z,15.02
2023-05-06T05:51:45.587Z,15.02
2023-05-06T05:52:45.537Z,15.02
2023-05-06T05:53:45.546Z,15.02
2023-05-06T05:54:45.499Z,15.03
2023-05-06T05:55:45.555Z,15.04
2023-05-06T05:56:45.465Z,15.04
2023-05-06T05:57:45.517Z,15.04
2023-05-06T05:58:45.427Z,15.04
2023-05-06T05:59:45.481Z,15.07
2023-05-06T06:00:45.422Z,15.10
2023-05-06T06:01:45.497Z,15.13
2023-05-06T06:02:45.409Z,15.16
2023-05-06T06:03:45.621Z,15.19
2023-05-06T06:04:45.397Z,15.21
2023-05-06T06:05:45.426Z,15.24
2023-05-06T06:06:45.366Z,15.26
2023-05-06T06:07:45.337Z,15.28
2023-05-06T06:08:45.288Z,15.30
2023-05-06T06:09:45.399Z,15.31
2023-05-06T06:10:45.270Z,15.32
2023-05-06T06:11:45.361Z,15.30
2023-05-06T06:12:45.258Z,15.27
2023-05-06T06:13:45.290Z,15.25
2023-05-06T06:14:45.213Z,15.24
2023-05-06T06:15:45.358Z,15.24
2023-05-06T06:16:45.211Z,15.25
2023-05-06T06:17:45.842Z,15.26
2023-05-06T06:18:45.169Z,15.27
2023-05-06T06:19:45.208Z,15.26
2023-05-06T06:20:45.138Z,15.26
2023-05-06T06:21:45.196Z,15.25
2023-05-06T06:22:45.100Z,15.24
2023-05-06T06:23:45.142Z,15.23
2023-05-06T06:24:45.084Z,15.23
2023-05-06T06:25:45.237Z,15.23
2023-05-06T06:26:45.048Z,15.23
2023-05-06T06:27:45.131Z,15.24
2023-05-06T06:28:45.050Z,15.24
2023-05-06T06:29:45.076Z,15.24
2023-05-06T06:30:45.003Z,15.23
2023-05-06T06:31:45.126Z,15.22
2023-05-06T06:32:45.005Z,15.19
2023-05-06T06:33:45.057Z,15.17
2023-05-06T06:34:44.998Z,15.15
2023-05-06T06:35:45.027Z,15.13
2023-05-06T06:36:44.919Z,15.12
2023-05-06T06:37:44.946Z,15.11
2023-05-06T06:38:44.920Z,15.09
2023-05-06T06:39:45.000Z,15.06
2023-05-06T06:40:44.870Z,15.02
2023-05-06T06:41:44.977Z,14.98
2023-05-06T06:42:44.843Z,14.95
2023-05-06T06:43:44.881Z,14.94
2023-05-06T06:44:44.826Z,14.93
2023-05-06T06:45:45.929Z,14.92
2023-05-06T06:46:44.789Z,14.90
2023-05-06T06:47:44.836Z,14.87
2023-05-06T06:48:44.762Z,14.88
2023-05-06T06:49:44.821Z,14.91
2023-05-06T06:50:44.745Z,14.96
2023-05-06T06:51:44.790Z,15.01
2023-05-06T06:52:44.708Z,15.05
2023-05-06T06:53:44.765Z,15.08
2023-05-06T06:54:44.684Z,15.09
2023-05-06T06:55:44.764Z,15.10
2023-05-06T06:56:44.652Z,15.11
2023-05-06T06:57:44.728Z,15.13
2023-05-06T06:58:44.642Z,15.16
2023-05-06T06:59:44.691Z,15.18
2023-05-06T07:00:44.728Z,15.19
2023-05-06T07:01:44.640Z,15.21
2023-05-06T07:02:44.593Z,15.22
2023-05-06T07:03:44.733Z,15.24
2023-05-06T07:04:45.915Z,15.25
2023-05-06T07:05:44.627Z,15.26
2023-05-06T07:06:44.519Z,15.28
2023-05-06T07:07:44.536Z,15.30
2023-05-06T07:08:44.488Z,15.32
2023-05-06T07:09:44.630Z,15.33
2023-05-06T07:10:44.469Z,15.34
2023-05-06T07:11:44.590Z,15.38
2023-05-06T07:12:44.520Z,15.42
2023-05-06T07:13:44.482Z,15.47
2023-05-06T07:14:44.435Z,15.52
2023-05-06T07:15:44.515Z,15.59
2023-05-06T07:16:46.414Z,15.65
2023-05-06T07:17:44.532Z,15.71
2023-05-06T07:18:44.477Z,15.78
2023-05-06T07:19:44.524Z,15.85
2023-05-06T07:20:44.476Z,15.92
2023-05-06T07:21:44.426Z,15.98
2023-05-06T07:22:44.307Z,16.02
2023-05-06T07:23:44.348Z,16.05
2023-05-06T07:24:44.284Z,16.08
2023-05-06T07:25:44.372Z,16.11
2023-05-06T07:26:44.268Z,16.13
2023-05-06T07:27:44.343Z,16.13
2023-05-06T07:28:44.227Z,16.14
2023-05-06T07:29:44.280Z,16.14
2023-05-06T07:30:44.223Z,16.15
2023-05-06T07:31:44.205Z,16.17
2023-05-06T07:32:44.294Z,16.21
2023-05-06T07:33:44.272Z,16.24
2023-05-06T07:34:44.141Z,16.28
2023-05-06T07:35:44.245Z,16.31
2023-05-06T07:36:44.118Z,16.34
2023-05-06T07:37:44.141Z,16.37
2023-05-06T07:38:44.108Z,16.41
2023-05-06T07:39:44.110Z,16.44
2023-05-06T07:40:44.072Z,16.45
2023-05-06T07:41:44.096Z,16.48
2023-05-06T07:42:44.028Z,16.52
2023-05-06T07:43:44.080Z,16.56
2023-05-06T07:44:43.997Z,16.59
2023-05-06T07:45:44.065Z,16.63
2023-05-06T07:46:44.023Z,16.65
2023-05-06T07:47:44.060Z,16.67
2023-05-06T07:48:43.943Z,16.71
2023-05-06T07:49:44.029Z,16.76
2023-05-06T07:50:43.921Z,16.83
2023-05-06T07:51:44.016Z,16.90
2023-05-06T07:52:43.885Z,16.94
2023-05-06T07:53:43.959Z,16.98
2023-05-06T07:54:43.865Z,17.03
2023-05-06T07:55:43.860Z,17.07
2023-05-06T07:56:43.840Z,17.10
2023-05-06T07:57:43.952Z,17.12
2023-05-06T07:58:43.808Z,17.15
2023-05-06T07:59:43.899Z,17.18
2023-05-06T08:00:43.778Z,17.21
2023-05-06T08:01:43.828Z,17.26
2023-05-06T08:02:43.834Z,17.31
2023-05-06T08:03:44.112Z,17.33
2023-05-06T08:04:43.805Z,17.35
2023-05-06T08:05:43.766Z,17.39
2023-05-06T08:06:43.701Z,17.44
2023-05-06T08:07:43.762Z,17.50
2023-05-06T08:08:43.666Z,17.53
2023-05-06T08:09:43.716Z,17.56
2023-05-06T08:10:43.643Z,17.59
2023-05-06T08:11:43.677Z,17.63
2023-05-06T08:12:43.657Z,17.69
2023-05-06T08:13:43.706Z,17.74
2023-05-06T08:14:43.606Z,17.78
2023-05-06T08:15:43.732Z,17.82
2023-05-06T08:16:43.710Z,17.86
2023-05-06T08:17:43.661Z,17.91
2023-05-06T08:18:43.550Z,17.96
2023-05-06T08:19:43.767Z,18.01
2023-05-06T08:20:43.531Z,18.08
2023-05-06T08:21:43.591Z,18.14
2023-05-06T08:22:43.488Z,18.19
2023-05-06T08:23:43.558Z,18.25
2023-05-06T08:24:43.508Z,18.30
2023-05-06T08:25:43.487Z,18.35
2023-05-06T08:26:43.432Z,18.38
2023-05-06T08:27:43.548Z,18.41
2023-05-06T08:28:43.406Z,18.46
2023-05-06T08:29:43.501Z,18.52
2023-05-06T08:30:43.394Z,18.56
2023-05-06T08:31:43.492Z,18.60
2023-05-06T08:32:43.390Z,18.65
2023-05-06T08:33:43.385Z,18.69
2023-05-06T08:34:43.325Z,18.72
2023-05-06T08:35:43.339Z,18.75
2023-05-06T08:36:43.396Z,18.76
2023-05-06T08:37:43.363Z,18.77
2023-05-06T08:38:43.283Z,18.78
2023-05-06T08:39:43.331Z,18.81
2023-05-06T08:40:43.251Z,18.83
2023-05-06T08:41:43.281Z,18.85
2023-05-06T08:42:43.221Z,18.86
2023-05-06T08:43:43.297Z,18.85
2023-05-06T08:44:43.205Z,18.83
2023-05-06T08:45:43.289Z,18.82
2023-05-06T08:46:43.168Z,18.83
2023-05-06T08:47:43.253Z,18.84
2023-05-06T08:48:43.141Z,18.84
2023-05-06T08:49:43.151Z,18.85
2023-05-06T08:50:43.160Z,18.87
2023-05-06T08:51:43.212Z,18.89
2023-05-06T08:52:43.073Z,18.90
2023-05-06T08:53:44.103Z,18.91
2023-05-06T08:54:43.053Z,18.91
2023-05-06T08:55:43.102Z,18.91
2023-05-06T08:56:43.027Z,18.93
2023-05-06T08:57:43.152Z,18.95
2023-05-06T08:58:43.018Z,18.98
2023-05-06T08:59:43.035Z,19.02
2023-05-06T09:00:42.983Z,19.04
2023-05-06T09:01:43.108Z,19.06
2023-05-06T09:02:43.470Z,19.07
2023-05-06T09:03:43.001Z,19.09
2023-05-06T09:04:42.926Z,19.12
2023-05-06T09:05:42.962Z,19.16
2023-05-06T09:06:42.890Z,19.19
2023-05-06T09:07:42.988Z,19.22
2023-05-06T09:08:42.869Z,19.25
2023-05-06T09:09:42.932Z,19.28
2023-05-06T09:10:42.880Z,19.31
2023-05-06T09:11:42.886Z,19.35
2023-05-06T09:12:42.819Z,19.39
2023-05-06T09:13:42.900Z,19.42
2023-05-06T09:14:42.801Z,19.42
2023-05-06T09:15:42.894Z,19.42
2023-05-06T09:16:42.769Z,19.44
2023-05-06T09:17:42.877Z,19.46
2023-05-06T09:18:42.738Z,19.50
2023-05-06T09:19:42.743Z,19.54
2023-05-06T09:20:42.713Z,19.57
2023-05-06T09:21:42.825Z,19.60
2023-05-06T09:22:42.710Z,19.64
2023-05-06T09:23:42.783Z,19.66
2023-05-06T09:24:42.659Z,19.67
2023-05-06T09:25:42.688Z,19.67
2023-05-06T09:26:42.645Z,19.69
2023-05-06T09:27:42.657Z,19.70
2023-05-06T09:28:42.612Z,19.72
2023-05-06T09:29:42.606Z,19.74
2023-05-06T09:30:42.620Z,19.76
2023-05-06T09:31:42.629Z,19.81
2023-05-06T09:32:42.609Z,19.84
2023-05-06T09:33:42.702Z,19.88
2023-05-06T09:34:42.554Z,19.91
2023-05-06T09:35:42.560Z,19.93
2023-05-06T09:36:42.517Z,19.95
2023-05-06T09:37:42.592Z,19.99
2023-05-06T09:38:42.476Z,20.00
2023-05-06T09:39:42.541Z,20.01
2023-05-06T09:40:42.454Z,20.01
2023-05-06T09:41:42.529Z,20.03
2023-05-06T09:42:42.419Z,20.04
2023-05-06T09:43:42.510Z,20.06
2023-05-06T09:44:42.398Z,20.07
2023-05-06T09:45:42.487Z,20.10
2023-05-06T09:46:42.495Z,20.12
2023-05-06T09:47:42.483Z,20.16
2023-05-06T09:48:42.353Z,20.19
2023-05-06T09:49:42.370Z,20.24
2023-05-06T09:50:42.333Z,20.25
2023-05-06T09:51:42.428Z,20.27
2023-05-06T09:52:42.288Z,20.27
2023-05-06T09:53:42.382Z,20.28
2023-05-06T09:54:42.263Z,20.29
2023-05-06T09:55:42.290Z,20.29
2023-05-06T09:56:42.238Z,20.28
2023-05-06T09:57:42.272Z,20.29
2023-05-06T09:58:42.207Z,20.31
2023-05-06T09:59:42.215Z,20.31
2023-05-06T10:00:42.185Z,20.32
2023-05-06T10:01:42.273Z,20.33
2023-05-06T10:02:42.287Z,20.32
2023-05-06T10:03:42.422Z,20.31
2023-05-06T10:04:42.518Z,20.31
2023-05-06T10:05:42.167Z,20.32
2023-05-06T10:06:42.132Z,20.32
2023-05-06T10:07:42.216Z,20.33
2023-05-06T10:08:42.079Z,20.34
2023-05-06T10:09:42.157Z,20.34
2023-05-06T10:10:42.049Z,20.34
2023-05-06T10:11:42.099Z,20.34
2023-05-06T10:12:42.096Z,20.35
2023-05-06T10:13:42.111Z,20.35
2023-05-06T10:14:42.009Z,20.36
2023-05-06T10:15:42.179Z,20.38
2023-05-06T10:16:42.167Z,20.38
2023-05-06T10:17:42.057Z,20.38
2023-05-06T10:18:41.947Z,20.40
2023-05-06T10:19:42.065Z,20.43
2023-05-06T10:20:41.930Z,20.45
2023-05-06T10:21:42.023Z,20.47
2023-05-06T10:22:41.894Z,20.47
2023-05-06T10:23:42.010Z,20.48
2023-05-06T10:24:41.880Z,20.48
2023-05-06T10:25:41.898Z,20.48
2023-05-06T10:26:41.843Z,20.48
2023-05-06T10:27:42.032Z,20.49
2023-05-06T10:28:41.814Z,20.48
2023-05-06T10:29:41.821Z,20.49
2023-05-06T10:30:41.787Z,20.49
2023-05-06T10:31:41.896Z,20.50
2023-05-06T10:32:41.843Z,20.51
2023-05-06T10:33:42.445Z,20.53
2023-05-06T10:34:41.719Z,20.54
2023-05-06T10:35:41.772Z,20.56
2023-05-06T10:36:41.726Z,20.57
2023-05-06T10:37:41.774Z,20.58
2023-05-06T10:38:41.684Z,20.58
2023-05-06T10:39:42.312Z,20.58
2023-05-06T10:40:41.667Z,20.60
2023-05-06T10:41:41.703Z,20.63
2023-05-06T10:42:41.627Z,20.66
2023-05-06T10:43:41.731Z,20.67
2023-05-06T10:44:41.593Z,20.68
2023-05-06T10:45:41.702Z,20.68
2023-05-06T10:46:41.586Z,20.66
2023-05-06T10:47:41.660Z,20.65
2023-05-06T10:48:41.531Z,20.65
2023-05-06T10:49:41.551Z,20.69
2023-05-06T10:50:41.513Z,20.73
2023-05-06T10:51:41.622Z,20.79
2023-05-06T10:52:41.515Z,20.83
2023-05-06T10:53:41.583Z,20.88
2023-05-06T10:54:41.458Z,20.94
2023-05-06T10:55:41.491Z,21.03
2023-05-06T10:56:41.425Z,21.11
2023-05-06T10:57:41.478Z,21.17
2023-05-06T10:58:41.410Z,21.24
2023-05-06T10:59:41.423Z,21.32
2023-05-06T11:00:41.443Z,21.40
2023-05-06T11:01:41.436Z,21.43
2023-05-06T11:02:41.418Z,21.48
2023-05-06T11:03:41.444Z,21.53
2023-05-06T11:04:41.316Z,21.56
2023-05-06T11:05:41.364Z,21.58
2023-05-06T11:06:41.296Z,21.62
2023-05-06T11:07:41.371Z,21.66
2023-05-06T11:08:41.269Z,21.69
2023-05-06T11:09:41.344Z,21.73
2023-05-06T11:10:41.243Z,21.82
2023-05-06T11:11:41.299Z,21.83
2023-05-06T11:12:41.214Z,21.86
2023-05-06T11:13:41.215Z,21.95
2023-05-06T11:14:41.208Z,22.07
2023-05-06T11:15:41.308Z,22.16
2023-05-06T11:16:41.193Z,22.22
2023-05-06T11:17:41.292Z,22.24
2023-05-06T11:18:41.127Z,22.25
2023-05-06T11:19:41.156Z,22.27
2023-05-06T11:20:41.091Z,22.28
2023-05-06T11:21:41.146Z,22.29
2023-05-06T11:22:41.155Z,22.28
2023-05-06T11:23:41.078Z,22.28
2023-05-06T11:24:41.048Z,22.25
2023-05-06T11:25:41.125Z,22.22
2023-05-06T11:26:41.029Z,22.18
2023-05-06T11:27:41.081Z,22.13
2023-05-06T11:28:40.991Z,22.08
2023-05-06T11:29:41.023Z,22.02
2023-05-06T11:30:41.002Z,21.99
2023-05-06T11:31:41.117Z,21.96
2023-05-06T11:32:40.974Z,21.94
2023-05-06T11:33:41.016Z,21.93
2023-05-06T11:34:40.920Z,21.93
2023-05-06T11:35:40.967Z,21.93
2023-05-06T11:36:40.907Z,21.96
2023-05-06T11:37:41.016Z,21.99
2023-05-06T11:38:40.875Z,22.04
2023-05-06T11:39:41.236Z,22.10
2023-05-06T11:40:40.846Z,22.18
2023-05-06T11:41:40.906Z,22.26
2023-05-06T11:42:40.810Z,22.30
2023-05-06T11:43:40.821Z,22.33
2023-05-06T11:44:40.781Z,22.41
2023-05-06T11:45:40.921Z,22.43
2023-05-06T11:46:40.791Z,22.46
2023-05-06T11:47:40.891Z,22.46
2023-05-06T11:48:40.732Z,22.40
2023-05-06T11:49:40.774Z,22.32
2023-05-06T11:50:40.701Z,22.27
2023-05-06T11:51:40.834Z,22.22
2023-05-06T11:52:40.696Z,22.21
2023-05-06T11:53:40.713Z,22.21
2023-05-06T11:54:40.641Z,22.21
2023-05-06T11:55:40.707Z,22.22
2023-05-06T11:56:40.636Z,22.23
2023-05-06T11:57:40.668Z,22.22
2023-05-06T11:58:40.608Z,22.22
2023-05-06T11:59:40.629Z,22.23
2023-05-06T12:00:40.565Z,22.22
2023-05-06T12:01:40.644Z,22.19
2023-05-06T12:02:40.688Z,22.14
2023-05-06T12:03:40.875Z,22.09
2023-05-06T12:04:40.572Z,22.04
2023-05-06T12:05:40.569Z,22.01
2023-05-06T12:06:40.494Z,21.98
2023-05-06T12:07:40.608Z,21.97
2023-05-06T12:08:40.458Z,21.96
2023-05-06T12:09:40.569Z,21.97
2023-05-06T12:10:40.448Z,21.95
2023-05-06T12:11:42.005Z,21.94
2023-05-06T12:12:40.447Z,21.92
2023-05-06T12:13:41.454Z,21.89
2023-05-06T12:14:40.383Z,21.85
2023-05-06T12:15:40.497Z,21.82
2023-05-06T12:16:40.391Z,21.79
2023-05-06T12:17:40.377Z,21.74
2023-05-06T12:18:40.327Z,21.70
2023-05-06T12:19:40.389Z,21.67
2023-05-06T12:20:40.298Z,21.64
2023-05-06T12:21:40.392Z,21.60
2023-05-06T12:22:40.277Z,21.57
2023-05-06T12:23:40.333Z,21.56
2023-05-06T12:24:40.261Z,21.55
2023-05-06T12:25:40.324Z,21.54
2023-05-06T12:26:40.218Z,21.54
2023-05-06T12:27:40.281Z,21.54
2023-05-06T12:28:40.189Z,21.55
2023-05-06T12:29:40.241Z,21.55
2023-05-06T12:30:40.171Z,21.57
2023-05-06T12:31:40.283Z,21.58
2023-05-06T12:32:40.151Z,21.60
2023-05-06T12:33:40.228Z,21.60
2023-05-06T12:34:40.130Z,21.59
2023-05-06T12:35:40.193Z,21.58
2023-05-06T12:36:40.106Z,21.56
2023-05-06T12:37:40.092Z,21.55
2023-05-06T12:38:40.059Z,21.52
2023-05-06T12:39:40.164Z,21.50
2023-05-06T12:40:40.046Z,21.47
2023-05-06T12:41:40.125Z,21.44
2023-05-06T12:42:40.033Z,21.39
2023-05-06T12:43:40.051Z,21.37
2023-05-06T12:44:40.000Z,21.35
2023-05-06T12:45:40.172Z,21.34
2023-05-06T12:46:39.965Z,21.34
2023-05-06T12:47:39.985Z,21.29
2023-05-06T12:48:39.950Z,21.19
2023-05-06T12:49:39.981Z,21.07
2023-05-06T12:50:40.150Z,20.98
2023-05-06T12:51:39.942Z,20.89
2023-05-06T12:52:39.885Z,20.78